sensor_id;sensor_type;location;lat;lon;timestamp;temperature;humidity
15115;DHT22;7658;51.456;7.622;2023-06-14T00:01:44;16.00;99.90
15115;DHT22;7658;51.456;7.622;2023-06-14T00:04:11;15.90;99.90
15115;DHT22;7658;51.456;7.622;2023-06-14T00:06:38;15.90;99.90
15115;DHT22;7658;51.456;7.622;2023-06-14T00:09:04;15.90;99.90
15115;DHT22;7658;51.456;7.622;2023-06-14T00:11:31;15.90;99.90
15115;DHT22;7658;51.456;7.622;2023-06-14T00:13:57;15.90;99.90
15115;DHT22;7658;51.456;7.622;2023-06-14T00:16:23;15.80;99.90
15115;DHT22;7658;51.456;7.622;2023-06-14T00:18:49;15.80;99.90
15115;DHT22;7658;51.456;7.622;2023-06-14T00:21:17;15.70;99.90
15115;DHT22;7658;51.456;7.622;2023-06-14T00:23:43;15.60;99.90
15115;DHT22;7658;51.456;7.622;2023-06-14T00:26:09;15.60;99.90
15115;DHT22;7658;51.456;7.622;2023-06-14T00:28:35;15.50;99.90
15115;DHT22;7658;51.456;7.622;2023-06-14T00:31:00;15.40;99.90
15115;DHT22;7658;51.456;7.622;2023-06-14T00:33:26;15.40;99.90
15115;DHT22;7658;51.456;7.622;2023-06-14T00:35:52;15.40;99.90
15115;DHT22;7658;51.456;7.622;2023-06-14T00:38:20;15.40;99.90
15115;DHT22;7658;51.456;7.622;2023-06-14T00:40:46;15.40;99.90
15115;DHT22;7658;51.456;7.622;2023-06-14T00:43:12;15.40;99.90
15115;DHT22;7658;51.456;7.622;2023-06-14T00:45:38;15.40;99.90
15115;DHT22;7658;51.456;7.622;2023-06-14T00:48:05;15.50;99.90
15115;DHT22;7658;51.456;7.622;2023-06-14T00:50:32;15.40;99.90
15115;DHT22;7658;51.456;7.622;2023-06-14T00:53:02;15.40;99.90
15115;DHT22;7658;51.456;7.622;2023-06-14T00:55:28;15.30;99.90
15115;DHT22;7658;51.456;7.622;2023-06-14T00:57:55;15.20;99.90
15115;DHT22;7658;51.456;7.622;2023-06-14T01:00:22;15.10;99.90
15115;DHT22;7658;51.456;7.622;2023-06-14T01:02:48;15.00;99.90
15115;DHT22;7658;51.456;7.622;2023-06-14T01:05:15;15.00;99.90
15115;DHT22;7658;51.456;7.622;2023-06-14T01:10:51;15.00;99.90
15115;DHT22;7658;51.456;7.622;2023-06-14T01:13:21;14.90;99.90
15115;DHT22;7658;51.456;7.622;2023-06-14T01:15:50;14.90;99.90
15115;DHT22;7658;51.456;7.622;2023-06-14T01:18:17;14.80;99.90
15115;DHT22;7658;51.456;7.622;2023-06-14T01:20:44;14.80;99.90
15115;DHT22;7658;51.456;7.622;2023-06-14T01:23:21;14.80;99.90
15115;DHT22;7658;51.456;7.622;2023-06-14T01:25:47;14.60;99.90
15115;DHT22;7658;51.456;7.622;2023-06-14T01:28:18;14.50;99.90
15115;DHT22;7658;51.456;7.622;2023-06-14T01:30:47;14.30;99.90
15115;DHT22;7658;51.456;7.622;2023-06-14T01:33:22;14.20;99.90
15115;DHT22;7658;51.456;7.622;2023-06-14T01:35:50;14.10;99.90
15115;DHT22;7658;51.456;7.622;2023-06-14T01:38:20;14.10;99.90
15115;DHT22;7658;51.456;7.622;2023-06-14T01:40:48;14.10;99.90
15115;DHT22;7658;51.456;7.622;2023-06-14T01:43:15;14.20;99.90
15115;DHT22;7658;51.456;7.622;2023-06-14T01:45:42;14.20;99.90
15115;DHT22;7658;51.456;7.622;2023-06-14T01:48:09;14.30;99.90
15115;DHT22;7658;51.456;7.622;2023-06-14T01:50:35;14.40;99.90
15115;DHT22;7658;51.456;7.622;2023-06-14T01:53:01;14.30;99.90
15115;DHT22;7658;51.456;7.622;2023-06-14T01:55:27;14.30;99.90
15115;DHT22;7658;51.456;7.622;2023-06-14T01:57:53;14.30;99.90
15115;DHT22;7658;51.456;7.622;2023-06-14T02:00:20;14.20;99.90
15115;DHT22;7658;51.456;7.622;2023-06-14T02:02:47;14.20;99.90
15115;DHT22;7658;51.456;7.622;2023-06-14T02:05:13;14.40;99.90
15115;DHT22;7658;51.456;7.622;2023-06-14T02:07:39;14.40;99.90
15115;DHT22;7658;51.456;7.622;2023-06-14T02:10:05;14.30;99.90
15115;DHT22;7658;51.456;7.622;2023-06-14T02:12:30;14.20;99.90
15115;DHT22;7658;51.456;7.622;2023-06-14T02:14:56;14.20;99.90
15115;DHT22;7658;51.456;7.622;2023-06-14T02:17:23;14.10;99.90
15115;DHT22;7658;51.456;7.622;2023-06-14T02:19:49;14.00;99.90
15115;DHT22;7658;51.456;7.622;2023-06-14T02:22:15;14.00;99.90
15115;DHT22;7658;51.456;7.622;2023-06-14T02:24:43;14.00;99.90
15115;DHT22;7658;51.456;7.622;2023-06-14T02:27:08;14.10;99.90
15115;DHT22;7658;51.456;7.622;2023-06-14T02:29:37;14.20;99.90
15115;DHT22;7658;51.456;7.622;2023-06-14T02:32:04;14.10;99.90
15115;DHT22;7658;51.456;7.622;2023-06-14T02:34:30;14.00;99.90
15115;DHT22;7658;51.456;7.622;2023-06-14T02:36:56;13.80;99.90
15115;DHT22;7658;51.456;7.622;2023-06-14T02:39:22;13.70;99.90
15115;DHT22;7658;51.456;7.622;2023-06-14T02:41:52;13.70;99.90
15115;DHT22;7658;51.456;7.622;2023-06-14T02:44:18;13.60;99.90
15115;DHT22;7658;51.456;7.622;2023-06-14T02:46:44;13.60;99.90
15115;DHT22;7658;51.456;7.622;2023-06-14T02:49:13;13.60;99.90
15115;DHT22;7658;51.456;7.622;2023-06-14T02:51:39;13.60;99.90
15115;DHT22;7658;51.456;7.622;2023-06-14T02:54:05;13.60;99.90
15115;DHT22;7658;51.456;7.622;2023-06-14T02:56:31;13.70;99.90
15115;DHT22;7658;51.456;7.622;2023-06-14T02:58:57;13.60;99.90
15115;DHT22;7658;51.456;7.622;2023-06-14T03:01:25;13.60;99.90
15115;DHT22;7658;51.456;7.622;2023-06-14T03:04:00;13.50;99.90
15115;DHT22;7658;51.456;7.622;2023-06-14T03:06:26;13.40;99.90
15115;DHT22;7658;51.456;7.622;2023-06-14T03:08:55;13.40;99.90
15115;DHT22;7658;51.456;7.622;2023-06-14T03:11:22;13.40;99.90
15115;DHT22;7658;51.456;7.622;2023-06-14T03:13:48;13.50;99.90
15115;DHT22;7658;51.456;7.622;2023-06-14T03:16:13;13.50;99.90
15115;DHT22;7658;51.456;7.622;2023-06-14T03:18:39;13.50;99.90
15115;DHT22;7658;51.456;7.622;2023-06-14T03:21:05;13.40;99.90
15115;DHT22;7658;51.456;7.622;2023-06-14T03:23:32;13.30;99.90
15115;DHT22;7658;51.456;7.622;2023-06-14T03:25:58;13.30;99.90
15115;DHT22;7658;51.456;7.622;2023-06-14T03:28:24;13.30;99.90
15115;DHT22;7658;51.456;7.622;2023-06-14T03:30:49;13.40;99.90
15115;DHT22;7658;51.456;7.622;2023-06-14T03:33:15;13.40;99.90
15115;DHT22;7658;51.456;7.622;2023-06-14T03:35:41;13.30;99.90
15115;DHT22;7658;51.456;7.622;2023-06-14T03:38:07;13.30;99.90
15115;DHT22;7658;51.456;7.622;2023-06-14T03:40:32;13.30;99.90
15115;DHT22;7658;51.456;7.622;2023-06-14T03:42:58;13.30;99.90
15115;DHT22;7658;51.456;7.622;2023-06-14T03:45:24;13.30;99.90
15115;DHT22;7658;51.456;7.622;2023-06-14T03:47:49;13.20;99.90
15115;DHT22;7658;51.456;7.622;2023-06-14T03:50:16;13.30;99.90
15115;DHT22;7658;51.456;7.622;2023-06-14T03:52:42;13.40;99.90
15115;DHT22;7658;51.456;7.622;2023-06-14T03:55:09;13.40;99.90
15115;DHT22;7658;51.456;7.622;2023-06-14T03:57:35;13.50;99.90
15115;DHT22;7658;51.456;7.622;2023-06-14T04:00:01;13.50;99.90
15115;DHT22;7658;51.456;7.622;2023-06-14T04:02:30;13.50;99.90
15115;DHT22;7658;51.456;7.622;2023-06-14T04:04:55;13.60;99.90
15115;DHT22;7658;51.456;7.622;2023-06-14T04:07:21;13.60;99.90
15115;DHT22;7658;51.456;7.622;2023-06-14T04:09:48;13.50;99.90
15115;DHT22;7658;51.456;7.622;2023-06-14T04:12:13;13.60;99.90
15115;DHT22;7658;51.456;7.622;2023-06-14T04:14:40;13.60;99.90
15115;DHT22;7658;51.456;7.622;2023-06-14T04:17:06;13.60;99.90
15115;DHT22;7658;51.456;7.622;2023-06-14T04:19:32;13.70;99.90
15115;DHT22;7658;51.456;7.622;2023-06-14T04:21:59;13.70;99.90
15115;DHT22;7658;51.456;7.622;2023-06-14T04:24:28;13.70;99.90
15115;DHT22;7658;51.456;7.622;2023-06-14T04:26:58;13.70;99.90
15115;DHT22;7658;51.456;7.622;2023-06-14T04:29:24;13.80;99.90
15115;DHT22;7658;51.456;7.622;2023-06-14T04:31:54;13.80;99.90
15115;DHT22;7658;51.456;7.622;2023-06-14T04:34:20;13.80;99.90
15115;DHT22;7658;51.456;7.622;2023-06-14T04:36:47;13.90;99.90
15115;DHT22;7658;51.456;7.622;2023-06-14T04:39:22;13.90;99.90
15115;DHT22;7658;51.456;7.622;2023-06-14T04:41:48;14.00;99.90
15115;DHT22;7658;51.456;7.622;2023-06-14T04:44:18;14.00;99.90
15115;DHT22;7658;51.456;7.622;2023-06-14T04:46:45;14.10;99.90
15115;DHT22;7658;51.456;7.622;2023-06-14T04:49:15;14.20;99.90
15115;DHT22;7658;51.456;7.622;2023-06-14T04:51:42;14.20;99.90
15115;DHT22;7658;51.456;7.622;2023-06-14T04:54:08;14.30;99.90
15115;DHT22;7658;51.456;7.622;2023-06-14T04:56:41;14.30;99.90
15115;DHT22;7658;51.456;7.622;2023-06-14T04:59:08;14.40;99.90
15115;DHT22;7658;51.456;7.622;2023-06-14T05:01:34;14.50;99.90
15115;DHT22;7658;51.456;7.622;2023-06-14T05:04:00;14.60;99.90
15115;DHT22;7658;51.456;7.622;2023-06-14T05:06:26;14.70;99.90
15115;DHT22;7658;51.456;7.622;2023-06-14T05:08:53;14.70;99.90
15115;DHT22;7658;51.456;7.622;2023-06-14T05:11:19;14.80;99.90
15115;DHT22;7658;51.456;7.622;2023-06-14T05:13:45;14.90;99.90
15115;DHT22;7658;51.456;7.622;2023-06-14T05:16:12;15.00;99.90
15115;DHT22;7658;51.456;7.622;2023-06-14T05:18:38;15.00;99.90
15115;DHT22;7658;51.456;7.622;2023-06-14T05:21:05;15.10;99.90
15115;DHT22;7658;51.456;7.622;2023-06-14T05:23:31;15.20;99.90
15115;DHT22;7658;51.456;7.622;2023-06-14T05:25:57;15.30;99.90
15115;DHT22;7658;51.456;7.622;2023-06-14T05:28:29;15.40;99.90
15115;DHT22;7658;51.456;7.622;2023-06-14T05:30:56;15.40;99.90
15115;DHT22;7658;51.456;7.622;2023-06-14T05:33:22;15.50;99.90
15115;DHT22;7658;51.456;7.622;2023-06-14T05:35:48;15.50;99.90
15115;DHT22;7658;51.456;7.622;2023-06-14T05:38:20;15.60;99.90
15115;DHT22;7658;51.456;7.622;2023-06-14T05:40:50;15.70;99.90
15115;DHT22;7658;51.456;7.622;2023-06-14T05:43:16;15.80;99.90
15115;DHT22;7658;51.456;7.622;2023-06-14T05:45:43;15.90;99.90
15115;DHT22;7658;51.456;7.622;2023-06-14T05:48:09;16.00;99.90
15115;DHT22;7658;51.456;7.622;2023-06-14T05:50:35;16.10;99.90
15115;DHT22;7658;51.456;7.622;2023-06-14T05:53:02;16.20;99.90
15115;DHT22;7658;51.456;7.622;2023-06-14T05:55:27;16.30;99.90
15115;DHT22;7658;51.456;7.622;2023-06-14T05:57:53;16.40;99.90
15115;DHT22;7658;51.456;7.622;2023-06-14T06:00:19;16.50;99.90
15115;DHT22;7658;51.456;7.622;2023-06-14T06:02:47;16.60;99.90
15115;DHT22;7658;51.456;7.622;2023-06-14T06:05:19;16.70;99.90
15115;DHT22;7658;51.456;7.622;2023-06-14T06:07:46;16.80;99.90
15115;DHT22;7658;51.456;7.622;2023-06-14T06:10:12;16.90;99.90
15115;DHT22;7658;51.456;7.622;2023-06-14T06:12:37;17.00;99.90
15115;DHT22;7658;51.456;7.622;2023-06-14T06:15:04;17.00;99.90
15115;DHT22;7658;51.456;7.622;2023-06-14T06:17:29;17.10;99.90
15115;DHT22;7658;51.456;7.622;2023-06-14T06:19:55;17.20;99.90
15115;DHT22;7658;51.456;7.622;2023-06-14T06:22:21;17.30;99.90
15115;DHT22;7658;51.456;7.622;2023-06-14T06:24:47;17.40;99.90
15115;DHT22;7658;51.456;7.622;2023-06-14T06:27:13;17.50;99.90
15115;DHT22;7658;51.456;7.622;2023-06-14T06:29:38;17.60;99.90
15115;DHT22;7658;51.456;7.622;2023-06-14T06:32:05;17.60;99.90
15115;DHT22;7658;51.456;7.622;2023-06-14T06:34:31;17.70;99.90
15115;DHT22;7658;51.456;7.622;2023-06-14T06:36:56;17.70;99.90
15115;DHT22;7658;51.456;7.622;2023-06-14T06:39:25;17.80;99.90
15115;DHT22;7658;51.456;7.622;2023-06-14T06:41:52;17.80;99.90
15115;DHT22;7658;51.456;7.622;2023-06-14T06:44:19;17.90;99.90
15115;DHT22;7658;51.456;7.622;2023-06-14T06:46:45;18.00;99.90
15115;DHT22;7658;51.456;7.622;2023-06-14T06:49:11;18.10;99.90
15115;DHT22;7658;51.456;7.622;2023-06-14T06:51:42;18.10;99.90
15115;DHT22;7658;51.456;7.622;2023-06-14T06:54:09;18.20;99.90
15115;DHT22;7658;51.456;7.622;2023-06-14T06:56:35;18.30;99.90
15115;DHT22;7658;51.456;7.622;2023-06-14T06:59:01;18.40;99.90
15115;DHT22;7658;51.456;7.622;2023-06-14T07:01:27;18.40;99.90
15115;DHT22;7658;51.456;7.622;2023-06-14T07:03:54;18.50;99.90
15115;DHT22;7658;51.456;7.622;2023-06-14T07:06:26;18.50;99.90
15115;DHT22;7658;51.456;7.622;2023-06-14T07:08:52;18.60;99.90
15115;DHT22;7658;51.456;7.622;2023-06-14T07:11:18;18.60;99.90
15115;DHT22;7658;51.456;7.622;2023-06-14T07:13:44;18.60;99.90
15115;DHT22;7658;51.456;7.622;2023-06-14T07:16:09;18.60;99.90
15115;DHT22;7658;51.456;7.622;2023-06-14T07:18:35;18.60;99.90
15115;DHT22;7658;51.456;7.622;2023-06-14T07:21:02;18.70;99.90
15115;DHT22;7658;51.456;7.622;2023-06-14T07:23:28;18.60;99.90
15115;DHT22;7658;51.456;7.622;2023-06-14T07:25:55;18.60;99.90
15115;DHT22;7658;51.456;7.622;2023-06-14T07:28:21;18.60;99.90
15115;DHT22;7658;51.456;7.622;2023-06-14T07:30:47;18.60;99.90
15115;DHT22;7658;51.456;7.622;2023-06-14T07:33:13;18.60;99.90
15115;DHT22;7658;51.456;7.622;2023-06-14T07:35:40;18.60;99.90
15115;DHT22;7658;51.456;7.622;2023-06-14T07:38:06;18.60;99.90
15115;DHT22;7658;51.456;7.622;2023-06-14T07:40:32;18.70;99.90
15115;DHT22;7658;51.456;7.622;2023-06-14T07:43:00;18.70;99.90
15115;DHT22;7658;51.456;7.622;2023-06-14T07:45:30;18.80;99.90
15115;DHT22;7658;51.456;7.622;2023-06-14T07:47:56;18.90;99.90
15115;DHT22;7658;51.456;7.622;2023-06-14T07:50:22;18.90;99.90
15115;DHT22;7658;51.456;7.622;2023-06-14T07:52:48;18.90;99.90
15115;DHT22;7658;51.456;7.622;2023-06-14T07:55:14;19.00;99.90
15115;DHT22;7658;51.456;7.622;2023-06-14T07:57:40;19.10;99.90
15115;DHT22;7658;51.456;7.622;2023-06-14T08:00:07;19.10;99.90
15115;DHT22;7658;51.456;7.622;2023-06-14T08:02:32;19.20;99.90
15115;DHT22;7658;51.456;7.622;2023-06-14T08:05:01;19.10;99.90
15115;DHT22;7658;51.456;7.622;2023-06-14T08:07:29;19.10;99.90
15115;DHT22;7658;51.456;7.622;2023-06-14T08:10:01;19.20;99.90
15115;DHT22;7658;51.456;7.622;2023-06-14T08:12:35;19.20;99.90
15115;DHT22;7658;51.456;7.622;2023-06-14T08:15:01;19.20;99.90
15115;DHT22;7658;51.456;7.622;2023-06-14T08:17:26;19.30;99.90
15115;DHT22;7658;51.456;7.622;2023-06-14T08:19:57;19.40;99.90
15115;DHT22;7658;51.456;7.622;2023-06-14T08:22:23;19.50;99.90
15115;DHT22;7658;51.456;7.622;2023-06-14T08:24:50;19.60;99.90
15115;DHT22;7658;51.456;7.622;2023-06-14T08:27:16;19.70;99.90
15115;DHT22;7658;51.456;7.622;2023-06-14T08:29:42;19.70;99.90
15115;DHT22;7658;51.456;7.622;2023-06-14T08:32:13;19.70;99.90
15115;DHT22;7658;51.456;7.622;2023-06-14T08:34:39;19.80;99.90
15115;DHT22;7658;51.456;7.622;2023-06-14T08:37:05;19.80;99.90
15115;DHT22;7658;51.456;7.622;2023-06-14T08:39:32;19.80;99.90
15115;DHT22;7658;51.456;7.622;2023-06-14T08:41:58;19.90;99.90
15115;DHT22;7658;51.456;7.622;2023-06-14T08:44:25;20.00;99.90
15115;DHT22;7658;51.456;7.622;2023-06-14T08:46:51;20.00;99.90
15115;DHT22;7658;51.456;7.622;2023-06-14T08:49:19;20.00;99.90
15115;DHT22;7658;51.456;7.622;2023-06-14T08:51:52;20.10;99.90
15115;DHT22;7658;51.456;7.622;2023-06-14T08:54:23;20.30;99.90
15115;DHT22;7658;51.456;7.622;2023-06-14T08:56:53;20.40;99.90
15115;DHT22;7658;51.456;7.622;2023-06-14T08:59:26;20.50;99.90
15115;DHT22;7658;51.456;7.622;2023-06-14T09:01:53;20.60;99.90
15115;DHT22;7658;51.456;7.622;2023-06-14T09:04:20;20.80;99.90
15115;DHT22;7658;51.456;7.622;2023-06-14T09:06:47;20.90;99.90
15115;DHT22;7658;51.456;7.622;2023-06-14T09:09:20;21.00;99.90
15115;DHT22;7658;51.456;7.622;2023-06-14T09:11:46;20.90;99.90
15115;DHT22;7658;51.456;7.622;2023-06-14T09:14:12;21.00;99.90
15115;DHT22;7658;51.456;7.622;2023-06-14T09:16:37;21.10;99.90
15115;DHT22;7658;51.456;7.622;2023-06-14T09:19:03;21.20;99.90
15115;DHT22;7658;51.456;7.622;2023-06-14T09:21:33;21.40;99.90
15115;DHT22;7658;51.456;7.622;2023-06-14T09:24:01;21.60;99.90
15115;DHT22;7658;51.456;7.622;2023-06-14T09:26:27;21.80;99.90
15115;DHT22;7658;51.456;7.622;2023-06-14T09:28:53;21.90;99.90
15115;DHT22;7658;51.456;7.622;2023-06-14T09:31:21;21.90;99.90
15115;DHT22;7658;51.456;7.622;2023-06-14T09:33:50;22.00;99.90
15115;DHT22;7658;51.456;7.622;2023-06-14T09:36:26;22.10;99.90
15115;DHT22;7658;51.456;7.622;2023-06-14T09:38:54;22.20;99.90
15115;DHT22;7658;51.456;7.622;2023-06-14T09:41:21;22.40;99.90
15115;DHT22;7658;51.456;7.622;2023-06-14T09:43:56;22.50;99.90
15115;DHT22;7658;51.456;7.622;2023-06-14T09:46:27;22.50;99.90
15115;DHT22;7658;51.456;7.622;2023-06-14T09:48:53;22.60;99.90
15115;DHT22;7658;51.456;7.622;2023-06-14T09:51:19;22.60;99.90
15115;DHT22;7658;51.456;7.622;2023-06-14T09:53:49;22.70;99.90
15115;DHT22;7658;51.456;7.622;2023-06-14T09:58:59;22.70;99.90
15115;DHT22;7658;51.456;7.622;2023-06-14T10:01:26;22.60;99.90
15115;DHT22;7658;51.456;7.622;2023-06-14T10:04:03;22.60;99.90
15115;DHT22;7658;51.456;7.622;2023-06-14T10:06:30;22.70;99.90
15115;DHT22;7658;51.456;7.622;2023-06-14T10:09:00;22.70;99.90
15115;DHT22;7658;51.456;7.622;2023-06-14T10:11:27;22.80;99.90
15115;DHT22;7658;51.456;7.622;2023-06-14T10:13:57;22.90;99.90
15115;DHT22;7658;51.456;7.622;2023-06-14T10:21:37;22.80;99.90
15115;DHT22;7658;51.456;7.622;2023-06-14T10:24:08;22.90;99.90
15115;DHT22;7658;51.456;7.622;2023-06-14T10:26:54;22.80;99.90
15115;DHT22;7658;51.456;7.622;2023-06-14T10:29:20;22.80;99.90
15115;DHT22;7658;51.456;7.622;2023-06-14T10:31:53;22.80;99.90
15115;DHT22;7658;51.456;7.622;2023-06-14T10:34:25;22.80;99.90
15115;DHT22;7658;51.456;7.622;2023-06-14T10:39:30;22.80;99.90
15115;DHT22;7658;51.456;7.622;2023-06-14T10:41:57;22.80;99.90
15115;DHT22;7658;51.456;7.622;2023-06-14T10:46:52;22.80;99.90
15115;DHT22;7658;51.456;7.622;2023-06-14T10:49:19;22.80;99.90
15115;DHT22;7658;51.456;7.622;2023-06-14T10:51:49;22.90;99.90
15115;DHT22;7658;51.456;7.622;2023-06-14T10:54:16;23.00;99.90
15115;DHT22;7658;51.456;7.622;2023-06-14T10:56:52;23.00;99.90
15115;DHT22;7658;51.456;7.622;2023-06-14T10:59:19;22.90;99.90
15115;DHT22;7658;51.456;7.622;2023-06-14T11:02:36;22.90;99.90
15115;DHT22;7658;51.456;7.622;2023-06-14T11:05:08;23.00;99.90
15115;DHT22;7658;51.456;7.622;2023-06-14T11:10:47;23.20;99.90
15115;DHT22;7658;51.456;7.622;2023-06-14T11:13:13;23.20;99.90
15115;DHT22;7658;51.456;7.622;2023-06-14T11:15:45;23.10;99.90
15115;DHT22;7658;51.456;7.622;2023-06-14T11:18:21;23.20;99.90
15115;DHT22;7658;51.456;7.622;2023-06-14T11:20:53;23.30;99.90
15115;DHT22;7658;51.456;7.622;2023-06-14T11:23:19;23.20;99.90
15115;DHT22;7658;51.456;7.622;2023-06-14T11:25:50;23.20;99.90
15115;DHT22;7658;51.456;7.622;2023-06-14T11:28:17;23.40;99.90
15115;DHT22;7658;51.456;7.622;2023-06-14T11:30:45;23.50;99.90
15115;DHT22;7658;51.456;7.622;2023-06-14T11:33:15;23.70;99.90
15115;DHT22;7658;51.456;7.622;2023-06-14T11:35:42;23.90;99.90
15115;DHT22;7658;51.456;7.622;2023-06-14T11:38:13;23.90;99.90
15115;DHT22;7658;51.456;7.622;2023-06-14T11:40:40;24.00;99.90
15115;DHT22;7658;51.456;7.622;2023-06-14T11:43:06;24.20;99.90
15115;DHT22;7658;51.456;7.622;2023-06-14T11:45:32;24.10;99.90
15115;DHT22;7658;51.456;7.622;2023-06-14T11:47:58;24.10;99.90
15115;DHT22;7658;51.456;7.622;2023-06-14T11:50:26;24.10;99.90
15115;DHT22;7658;51.456;7.622;2023-06-14T11:53:01;24.20;99.90
15115;DHT22;7658;51.456;7.622;2023-06-14T11:55:39;24.30;99.90
15115;DHT22;7658;51.456;7.622;2023-06-14T11:58:06;24.20;99.90
15115;DHT22;7658;51.456;7.622;2023-06-14T12:00:32;24.30;99.90
15115;DHT22;7658;51.456;7.622;2023-06-14T12:02:58;24.40;99.90
15115;DHT22;7658;51.456;7.622;2023-06-14T12:05:25;24.50;99.90
15115;DHT22;7658;51.456;7.622;2023-06-14T12:07:58;24.50;99.90
15115;DHT22;7658;51.456;7.622;2023-06-14T12:10:26;24.60;99.90
15115;DHT22;7658;51.456;7.622;2023-06-14T12:12:57;24.60;99.90
15115;DHT22;7658;51.456;7.622;2023-06-14T12:15:23;24.60;99.90
15115;DHT22;7658;51.456;7.622;2023-06-14T12:17:49;24.60;99.90
15115;DHT22;7658;51.456;7.622;2023-06-14T12:20:16;24.70;99.90
15115;DHT22;7658;51.456;7.622;2023-06-14T12:22:56;24.70;99.90
15115;DHT22;7658;51.456;7.622;2023-06-14T12:25:30;24.90;99.90
15115;DHT22;7658;51.456;7.622;2023-06-14T12:28:07;25.10;99.90
15115;DHT22;7658;51.456;7.622;2023-06-14T12:30:34;25.10;99.90
15115;DHT22;7658;51.456;7.622;2023-06-14T12:33:00;24.90;99.90
15115;DHT22;7658;51.456;7.622;2023-06-14T12:35:26;24.90;99.90
15115;DHT22;7658;51.456;7.622;2023-06-14T12:37:52;24.90;99.90
15115;DHT22;7658;51.456;7.622;2023-06-14T12:40:18;25.00;99.90
15115;DHT22;7658;51.456;7.622;2023-06-14T12:42:44;25.10;99.90
15115;DHT22;7658;51.456;7.622;2023-06-14T12:45:12;25.30;99.90
15115;DHT22;7658;51.456;7.622;2023-06-14T12:47:39;25.60;99.90
15115;DHT22;7658;51.456;7.622;2023-06-14T12:50:06;25.70;99.90
15115;DHT22;7658;51.456;7.622;2023-06-14T12:52:32;25.60;99.90
15115;DHT22;7658;51.456;7.622;2023-06-14T12:55:04;25.60;99.90
15115;DHT22;7658;51.456;7.622;2023-06-14T12:57:31;25.70;99.90
15115;DHT22;7658;51.456;7.622;2023-06-14T12:59:57;25.80;99.90
15115;DHT22;7658;51.456;7.622;2023-06-14T13:02:22;25.90;99.90
15115;DHT22;7658;51.456;7.622;2023-06-14T13:04:50;26.20;99.90
15115;DHT22;7658;51.456;7.622;2023-06-14T13:07:16;26.30;99.90
15115;DHT22;7658;51.456;7.622;2023-06-14T13:09:42;26.10;99.90
15115;DHT22;7658;51.456;7.622;2023-06-14T13:12:10;26.10;99.90
15115;DHT22;7658;51.456;7.622;2023-06-14T13:14:36;26.30;99.90
15115;DHT22;7658;51.456;7.622;2023-06-14T13:17:02;26.00;99.90
15115;DHT22;7658;51.456;7.622;2023-06-14T13:19:28;25.70;99.90
15115;DHT22;7658;51.456;7.622;2023-06-14T13:21:59;25.90;99.90
15115;DHT22;7658;51.456;7.622;2023-06-14T13:24:25;25.90;99.90
15115;DHT22;7658;51.456;7.622;2023-06-14T13:26:51;26.00;99.90
15115;DHT22;7658;51.456;7.622;2023-06-14T13:29:16;26.20;99.90
15115;DHT22;7658;51.456;7.622;2023-06-14T13:31:42;26.40;99.90
15115;DHT22;7658;51.456;7.622;2023-06-14T13:34:08;26.70;99.90
15115;DHT22;7658;51.456;7.622;2023-06-14T13:36:34;26.80;99.90
15115;DHT22;7658;51.456;7.622;2023-06-14T13:39:00;27.00;99.90
15115;DHT22;7658;51.456;7.622;2023-06-14T13:41:27;27.10;99.90
15115;DHT22;7658;51.456;7.622;2023-06-14T13:43:59;26.80;99.90
15115;DHT22;7658;51.456;7.622;2023-06-14T13:46:26;26.90;99.90
15115;DHT22;7658;51.456;7.622;2023-06-14T13:48:52;27.20;99.90
15115;DHT22;7658;51.456;7.622;2023-06-14T13:51:20;27.20;99.90
15115;DHT22;7658;51.456;7.622;2023-06-14T13:53:49;27.40;99.90
15115;DHT22;7658;51.456;7.622;2023-06-14T13:56:16;27.50;99.90
15115;DHT22;7658;51.456;7.622;2023-06-14T13:58:42;27.20;99.90
15115;DHT22;7658;51.456;7.622;2023-06-14T14:01:08;26.60;99.90
15115;DHT22;7658;51.456;7.622;2023-06-14T14:03:35;26.30;99.90
15115;DHT22;7658;51.456;7.622;2023-06-14T14:06:01;26.30;99.90
15115;DHT22;7658;51.456;7.622;2023-06-14T14:08:28;26.20;99.90
15115;DHT22;7658;51.456;7.622;2023-06-14T14:10:54;26.20;99.90
15115;DHT22;7658;51.456;7.622;2023-06-14T14:13:19;26.30;99.90
15115;DHT22;7658;51.456;7.622;2023-06-14T14:15:46;26.60;99.90
15115;DHT22;7658;51.456;7.622;2023-06-14T14:18:13;26.90;99.90
15115;DHT22;7658;51.456;7.622;2023-06-14T14:20:39;27.10;99.90
15115;DHT22;7658;51.456;7.622;2023-06-14T14:23:05;27.20;99.90
15115;DHT22;7658;51.456;7.622;2023-06-14T14:25:31;27.40;99.90
15115;DHT22;7658;51.456;7.622;2023-06-14T14:27:56;27.50;99.90
15115;DHT22;7658;51.456;7.622;2023-06-14T14:30:22;27.60;99.90
15115;DHT22;7658;51.456;7.622;2023-06-14T14:32:49;27.40;99.90
15115;DHT22;7658;51.456;7.622;2023-06-14T14:35:18;27.40;99.90
15115;DHT22;7658;51.456;7.622;2023-06-14T14:37:44;27.30;99.90
15115;DHT22;7658;51.456;7.622;2023-06-14T14:40:11;27.50;99.90
15115;DHT22;7658;51.456;7.622;2023-06-14T14:42:37;27.50;99.90
15115;DHT22;7658;51.456;7.622;2023-06-14T14:45:06;27.40;99.90
15115;DHT22;7658;51.456;7.622;2023-06-14T14:47:32;27.40;99.90
15115;DHT22;7658;51.456;7.622;2023-06-14T14:49:58;27.30;99.90
15115;DHT22;7658;51.456;7.622;2023-06-14T14:52:24;27.00;99.90
15115;DHT22;7658;51.456;7.622;2023-06-14T14:54:52;26.80;99.90
15115;DHT22;7658;51.456;7.622;2023-06-14T14:57:19;26.80;99.90
15115;DHT22;7658;51.456;7.622;2023-06-14T14:59:45;26.80;99.90
15115;DHT22;7658;51.456;7.622;2023-06-14T15:02:10;27.00;99.90
15115;DHT22;7658;51.456;7.622;2023-06-14T15:04:36;27.10;99.90
15115;DHT22;7658;51.456;7.622;2023-06-14T15:07:02;27.10;99.90
15115;DHT22;7658;51.456;7.622;2023-06-14T15:09:30;27.30;99.90
15115;DHT22;7658;51.456;7.622;2023-06-14T15:11:58;27.50;99.90
15115;DHT22;7658;51.456;7.622;2023-06-14T15:14:23;27.60;99.90
15115;DHT22;7658;51.456;7.622;2023-06-14T15:16:49;27.30;99.90
15115;DHT22;7658;51.456;7.622;2023-06-14T15:19:18;27.40;99.90
15115;DHT22;7658;51.456;7.622;2023-06-14T15:21:44;27.30;99.90
15115;DHT22;7658;51.456;7.622;2023-06-14T15:24:09;27.30;99.90
15115;DHT22;7658;51.456;7.622;2023-06-14T15:26:35;27.30;99.90
15115;DHT22;7658;51.456;7.622;2023-06-14T15:29:01;27.20;99.90
15115;DHT22;7658;51.456;7.622;2023-06-14T15:31:27;27.00;99.90
15115;DHT22;7658;51.456;7.622;2023-06-14T15:33:54;27.10;99.90
15115;DHT22;7658;51.456;7.622;2023-06-14T15:36:24;27.00;99.90
15115;DHT22;7658;51.456;7.622;2023-06-14T15:38:50;26.90;99.90
15115;DHT22;7658;51.456;7.622;2023-06-14T15:41:50;26.90;99.90
15115;DHT22;7658;51.456;7.622;2023-06-14T15:44:25;27.00;99.90
15115;DHT22;7658;51.456;7.622;2023-06-14T15:46:51;26.60;99.90
15115;DHT22;7658;51.456;7.622;2023-06-14T15:49:17;26.50;99.90
15115;DHT22;7658;51.456;7.622;2023-06-14T15:51:44;26.50;99.90
15115;DHT22;7658;51.456;7.622;2023-06-14T15:54:10;26.50;99.90
15115;DHT22;7658;51.456;7.622;2023-06-14T15:56:36;26.30;99.90
15115;DHT22;7658;51.456;7.622;2023-06-14T15:59:06;26.30;99.90
15115;DHT22;7658;51.456;7.622;2023-06-14T16:01:33;26.40;99.90
15115;DHT22;7658;51.456;7.622;2023-06-14T16:03:58;26.40;99.90
15115;DHT22;7658;51.456;7.622;2023-06-14T16:06:31;26.30;99.90